Time;durP1;ratioP1;P1;durP2;ratioP2;P2;SDS_P1;SDS_P2;PMS_P1;PMS_P2;Temp;Humidity;BMP_temperature;BMP_pressure;BME280_temperature;BME280_humidity;BME280_pressure;Samples;Min_cycle;Max_cycle;Signal;HPM_P1;HPM_P2
2023/06/20 00:00:31;;;;;;;11.10;10.70;;;21.50;99.90;;;;;;5045824;28;20530;-66
2023/06/20 00:02:59;;;;;;;11.30;10.90;;;21.50;99.90;;;;;;5039648;28;20468;-67
2023/06/20 00:05:25;;;;;;;11.27;10.87;;;21.40;99.90;;;;;;5039071;28;20464;-67
2023/06/20 00:07:54;;;;;;;11.33;10.93;;;21.40;99.90;;;;;;5043834;28;20727;-67
2023/06/20 00:10:21;;;;;;;11.10;10.70;;;21.50;99.90;;;;;;5043467;28;20449;-68
2023/06/20 00:12:48;;;;;;;11.07;10.67;;;21.50;99.90;;;;;;5032328;28;20947;-66
2023/06/20 00:15:16;;;;;;;11.00;10.60;;;21.60;99.90;;;;;;5040177;28;20860;-67
2023/06/20 00:17:43;;;;;;;11.00;10.60;;;21.60;99.90;;;;;;5039018;28;21028;-66
2023/06/20 00:20:10;;;;;;;11.10;10.70;;;21.70;99.90;;;;;;5038582;28;20982;-67
2023/06/20 00:22:37;;;;;;;11.40;11.00;;;21.80;99.90;;;;;;5048150;28;20892;-67
2023/06/20 00:25:05;;;;;;;11.20;10.80;;;21.80;99.90;;;;;;5034196;28;20974;-67
2023/06/20 00:27:32;;;;;;;10.60;10.20;;;21.80;99.90;;;;;;5041693;28;20467;-66
2023/06/20 00:29:59;;;;;;;11.63;11.23;;;21.80;99.90;;;;;;5035152;28;20460;-67
2023/06/20 00:32:26;;;;;;;11.67;11.23;;;22.00;99.90;;;;;;5038489;28;20503;-68
2023/06/20 00:34:53;;;;;;;11.00;10.60;;;22.10;99.90;;;;;;5047037;28;20467;-67
2023/06/20 00:37:20;;;;;;;11.10;10.70;;;22.10;99.90;;;;;;5030550;28;20468;-68
2023/06/20 00:39:47;;;;;;;11.17;10.77;;;22.00;99.90;;;;;;5037488;28;20502;-67
2023/06/20 00:42:23;;;;;;;10.90;10.50;;;22.00;99.90;;;;;;5038888;28;20488;-67
2023/06/20 00:44:50;;;;;;;11.10;10.70;;;22.00;99.90;;;;;;5047991;28;20877;-67
2023/06/20 00:47:18;;;;;;;11.50;11.10;;;22.10;99.90;;;;;;5043635;28;20790;-69
2023/06/20 00:49:47;;;;;;;12.10;11.60;;;22.10;99.90;;;;;;5035411;28;20466;-65
2023/06/20 00:52:15;;;;;;;11.00;10.60;;;22.10;99.90;;;;;;5039413;28;20573;-67
2023/06/20 00:54:44;;;;;;;13.93;13.30;;;21.70;99.90;;;;;;5032922;28;20672;-67
2023/06/20 00:57:12;;;;;;;11.00;10.60;;;21.70;99.90;;;;;;5038940;28;20464;-68
2023/06/20 00:59:43;;;;;;;11.10;10.70;;;21.80;99.90;;;;;;5031546;28;20459;-66
2023/06/20 01:02:12;;;;;;;11.83;11.33;;;21.90;99.90;;;;;;5040659;28;20467;-67
2023/06/20 01:04:40;;;;;;;12.20;11.73;;;22.00;99.90;;;;;;5038514;28;20455;-66
2023/06/20 01:07:15;;;;;;;12.20;11.70;;;22.00;99.90;;;;;;5046459;28;20566;-66
2023/06/20 01:09:52;;;;;;;11.67;11.27;;;22.10;99.90;;;;;;5035279;28;20488;-66
2023/06/20 01:12:27;;;;;;;11.60;11.20;;;22.10;99.90;;;;;;5027106;28;20514;-68
2023/06/20 01:15:02;;;;;;;12.20;11.70;;;22.10;99.90;;;;;;5042120;28;20815;-66
2023/06/20 01:17:37;;;;;;;11.90;11.50;;;21.90;99.90;;;;;;5035001;28;20468;-66
2023/06/20 01:20:12;;;;;;;11.20;10.80;;;21.70;99.90;;;;;;5046388;28;20508;-68
2023/06/20 01:22:48;;;;;;;10.93;10.53;;;21.70;99.90;;;;;;5035488;28;20490;-67
2023/06/20 01:25:24;;;;;;;11.40;11.00;;;21.60;99.90;;;;;;5035884;28;20460;-68
2023/06/20 01:27:57;;;;;;;11.00;10.60;;;21.60;99.90;;;;;;5029358;28;20491;-67
2023/06/20 01:30:31;;;;;;;11.40;11.00;;;21.60;99.90;;;;;;5042581;28;20477;-68
2023/06/20 01:33:02;;;;;;;11.70;11.30;;;21.60;99.90;;;;;;5038696;28;20994;-66
2023/06/20 01:35:31;;;;;;;12.80;12.30;;;21.40;99.90;;;;;;5042935;28;20448;-67
2023/06/20 01:38:04;;;;;;;11.80;11.40;;;21.10;99.90;;;;;;5043731;28;20478;-68
2023/06/20 01:40:34;;;;;;;11.90;11.40;;;21.00;99.90;;;;;;5037231;28;21167;-66
2023/06/20 01:43:02;;;;;;;10.60;10.20;;;21.10;99.90;;;;;;5034836;28;22460;-67
2023/06/20 01:45:32;;;;;;;10.40;10.00;;;21.10;99.90;;;;;;5037831;28;20491;-67
2023/06/20 01:48:03;;;;;;;11.03;10.63;;;21.10;99.90;;;;;;5034546;28;20460;-67
2023/06/20 01:50:30;;;;;;;10.50;10.10;;;21.20;99.90;;;;;;5032737;28;20463;-68
2023/06/20 01:53:00;;;;;;;9.90;9.60;;;21.30;99.90;;;;;;5041373;28;20487;-69
2023/06/20 01:55:29;;;;;;;9.90;9.60;;;21.30;99.90;;;;;;5040968;28;20499;-67
2023/06/20 01:57:58;;;;;;;10.37;10.00;;;21.30;99.90;;;;;;5033839;28;20551;-68
2023/06/20 02:00:27;;;;;;;9.90;9.60;;;21.30;99.90;;;;;;5035781;28;20468;-68
2023/06/20 02:02:57;;;;;;;10.30;9.90;;;21.30;99.90;;;;;;5042160;28;20947;-67
2023/06/20 02:05:26;;;;;;;9.70;9.40;;;21.30;99.90;;;;;;5043536;28;20551;-67
2023/06/20 02:07:55;;;;;;;9.90;9.60;;;21.30;99.90;;;;;;5034104;28;21214;-66
2023/06/20 02:10:25;;;;;;;9.60;9.30;;;21.20;99.90;;;;;;5040594;28;20571;-68
2023/06/20 02:12:54;;;;;;;10.53;10.03;;;21.20;99.90;;;;;;5042109;28;20906;-67
2023/06/20 02:15:24;;;;;;;10.27;9.87;;;21.10;99.90;;;;;;5037458;28;20484;-67
2023/06/20 02:17:50;;;;;;;9.60;9.30;;;21.00;99.90;;;;;;5045294;28;20460;-67
2023/06/20 02:20:18;;;;;;;10.13;9.73;;;21.00;99.90;;;;;;5032340;28;20464;-67
2023/06/20 02:22:47;;;;;;;10.30;9.90;;;21.10;99.90;;;;;;5038928;28;20467;-67
2023/06/20 02:25:20;;;;;;;9.90;9.60;;;21.20;99.90;;;;;;5033334;28;20856;-68
2023/06/20 02:27:50;;;;;;;10.00;9.70;;;21.20;99.90;;;;;;5034418;28;20859;-66
2023/06/20 02:30:19;;;;;;;10.30;9.90;;;21.30;99.90;;;;;;5034738;28;20494;-67
2023/06/20 02:32:47;;;;;;;9.90;9.60;;;21.40;99.90;;;;;;5033771;28;20506;-69
2023/06/20 02:35:14;;;;;;;9.70;9.40;;;21.40;99.90;;;;;;5042228;28;20887;-66
2023/06/20 02:37:43;;;;;;;10.30;9.90;;;21.30;99.90;;;;;;5035572;28;20453;-67
2023/06/20 02:40:12;;;;;;;9.40;9.10;;;21.30;99.90;;;;;;5036927;28;20518;-68
2023/06/20 02:42:39;;;;;;;9.70;9.40;;;21.40;99.90;;;;;;5040381;28;21173;-67
2023/06/20 02:45:09;;;;;;;9.90;9.60;;;21.30;99.90;;;;;;5038461;28;20974;-66
2023/06/20 02:47:48;;;;;;;10.57;10.07;;;21.20;99.90;;;;;;5044883;28;20479;-67
2023/06/20 02:50:21;;;;;;;10.37;9.97;;;21.10;99.90;;;;;;5035112;28;20456;-67
2023/06/20 02:52:49;;;;;;;9.90;9.60;;;21.10;99.90;;;;;;5039173;28;20491;-66
2023/06/20 02:55:26;;;;;;;10.90;10.50;;;21.00;99.90;;;;;;5042393;28;20864;-65
2023/06/20 02:57:56;;;;;;;14.87;14.17;;;20.90;99.90;;;;;;5034172;28;20947;-67
2023/06/20 03:00:26;;;;;;;15.90;15.10;;;20.80;99.90;;;;;;5038567;28;20767;-67
2023/06/20 03:03:01;;;;;;;17.20;16.30;;;20.70;99.90;;;;;;5032064;28;20472;-68
2023/06/20 03:05:31;;;;;;;17.97;16.97;;;20.60;99.90;;;;;;5042627;28;20468;-67
2023/06/20 03:07:59;;;;;;;18.23;17.23;;;20.50;99.90;;;;;;5034179;28;20514;-68
2023/06/20 03:10:27;;;;;;;21.70;19.83;;;20.60;99.90;;;;;;5035750;28;20468;-68
2023/06/20 03:12:54;;;;;;;22.80;21.20;;;20.50;99.90;;;;;;5037800;28;20549;-69
2023/06/20 03:15:21;;;;;;;24.00;22.10;;;20.40;99.90;;;;;;5038147;28;20515;-67
2023/06/20 03:17:49;;;;;;;23.00;21.20;;;20.30;99.90;;;;;;5028128;28;20461;-67
2023/06/20 03:20:16;;;;;;;23.27;21.37;;;20.20;99.90;;;;;;5040306;28;20475;-66
2023/06/20 03:22:43;;;;;;;23.43;21.53;;;20.00;99.90;;;;;;5049275;28;20475;-68
2023/06/20 03:25:10;;;;;;;22.70;21.00;;;19.90;99.90;;;;;;5039663;28;20828;-68
2023/06/20 03:27:36;;;;;;;22.83;21.13;;;19.80;99.90;;;;;;5042895;28;20555;-68
2023/06/20 03:30:04;;;;;;;21.70;20.10;;;19.80;99.90;;;;;;5036600;28;20482;-68
2023/06/20 03:32:32;;;;;;;21.53;19.97;;;19.70;99.90;;;;;;5041128;28;20480;-66
2023/06/20 03:35:00;;;;;;;22.10;20.50;;;19.50;99.90;;;;;;5047350;28;20885;-67
2023/06/20 03:37:27;;;;;;;21.40;19.90;;;19.50;99.90;;;;;;5045049;28;20696;-68
2023/06/20 03:39:54;;;;;;;22.87;21.27;;;19.50;99.90;;;;;;5040994;28;20488;-67
2023/06/20 03:42:21;;;;;;;20.50;19.10;;;19.50;99.90;;;;;;5044727;28;20479;-68
2023/06/20 03:44:48;;;;;;;20.00;18.70;;;19.40;99.90;;;;;;5039368;28;20945;-66
2023/06/20 03:47:15;;;;;;;19.63;18.33;;;19.40;99.90;;;;;;5040991;28;20909;-68
2023/06/20 03:49:43;;;;;;;20.20;18.90;;;19.40;99.90;;;;;;5045588;28;20464;-68
2023/06/20 03:52:11;;;;;;;19.80;18.50;;;19.30;99.90;;;;;;5047483;28;20488;-67
2023/06/20 03:54:39;;;;;;;19.90;18.60;;;19.30;99.90;;;;;;5034598;28;20678;-68
2023/06/20 03:57:06;;;;;;;20.20;18.90;;;19.30;99.90;;;;;;5044457;28;20468;-67
2023/06/20 03:59:33;;;;;;;20.67;19.37;;;19.30;99.90;;;;;;5036478;28;20550;-67
2023/06/20 04:01:59;;;;;;;19.70;18.50;;;19.30;99.90;;;;;;5041276;28;20463;-67
2023/06/20 04:04:26;;;;;;;19.80;18.60;;;19.30;99.90;;;;;;5040777;28;20464;-67
2023/06/20 04:06:53;;;;;;;19.70;18.50;;;19.20;99.90;;;;;;5048813;28;20464;-66
2023/06/20 04:09:25;;;;;;;19.70;18.50;;;19.20;99.90;;;;;;5037394;28;20456;-66
2023/06/20 04:11:53;;;;;;;19.10;17.90;;;19.30;99.90;;;;;;5042457;28;20468;-67
2023/06/20 04:14:20;;;;;;;18.70;17.60;;;19.30;99.90;;;;;;5046838;28;20464;-65
2023/06/20 04:16:49;;;;;;;19.33;18.23;;;19.30;99.90;;;;;;5035261;28;20492;-65
2023/06/20 04:19:18;;;;;;;18.37;17.37;;;19.40;99.90;;;;;;5042488;28;20466;-65
2023/06/20 04:21:45;;;;;;;17.53;16.63;;;19.50;99.90;;;;;;5038588;28;20464;-67
2023/06/20 04:24:12;;;;;;;17.60;16.70;;;19.50;99.90;;;;;;5039007;28;20882;-66
2023/06/20 04:26:40;;;;;;;17.30;16.40;;;19.40;99.90;;;;;;5037677;28;20565;-65
2023/06/20 04:29:08;;;;;;;17.67;16.77;;;19.30;99.90;;;;;;5043752;28;20541;-66
2023/06/20 04:31:34;;;;;;;17.90;17.00;;;19.30;99.90;;;;;;5046889;28;20551;-66
2023/06/20 04:34:02;;;;;;;17.80;16.90;;;19.30;99.90;;;;;;5038710;28;20900;-65
2023/06/20 04:36:33;;;;;;;19.17;18.07;;;19.30;99.90;;;;;;5048448;28;20871;-67
2023/06/20 04:39:03;;;;;;;17.90;17.00;;;19.40;99.90;;;;;;5040077;28;20946;-66
2023/06/20 04:41:30;;;;;;;17.80;16.90;;;19.50;99.90;;;;;;5044993;28;20546;-67
2023/06/20 04:44:00;;;;;;;18.70;17.70;;;19.50;99.90;;;;;;5045919;28;20464;-66
2023/06/20 04:46:27;;;;;;;18.10;17.20;;;19.50;99.90;;;;;;5037328;28;20870;-66
2023/06/20 04:48:54;;;;;;;17.33;16.43;;;19.60;99.90;;;;;;5042607;28;20955;-66
2023/06/20 04:51:20;;;;;;;18.60;17.50;;;19.60;99.90;;;;;;5042132;28;20543;-65
2023/06/20 04:53:48;;;;;;;17.37;16.47;;;19.60;99.90;;;;;;5040380;28;20479;-65
2023/06/20 04:56:15;;;;;;;17.00;16.10;;;19.60;99.90;;;;;;5042712;28;20560;-66
2023/06/20 04:58:45;;;;;;;16.80;16.00;;;19.70;99.90;;;;;;5039513;28;20859;-66
2023/06/20 05:01:14;;;;;;;16.10;15.30;;;19.70;99.90;;;;;;5033869;28;20459;-67
2023/06/20 05:03:42;;;;;;;16.60;15.80;;;19.70;99.90;;;;;;5035822;28;20483;-67
2023/06/20 05:06:09;;;;;;;16.43;15.63;;;19.70;99.90;;;;;;5029996;28;20510;-67
2023/06/20 05:08:36;;;;;;;16.20;15.40;;;19.80;99.90;;;;;;5040693;28;20839;-66
2023/06/20 05:11:03;;;;;;;15.37;14.67;;;19.90;99.90;;;;;;5036773;28;20449;-67
2023/06/20 05:13:32;;;;;;;15.33;14.63;;;20.00;99.90;;;;;;5039098;28;20485;-66
2023/06/20 05:15:59;;;;;;;13.20;12.60;;;20.00;99.90;;;;;;5033942;28;20477;-66
2023/06/20 05:18:27;;;;;;;12.53;12.03;;;20.10;99.90;;;;;;5039818;28;20464;-67
2023/06/20 05:20:55;;;;;;;12.17;11.67;;;20.20;99.90;;;;;;5028894;28;20461;-65
2023/06/20 05:23:22;;;;;;;11.90;11.40;;;20.30;99.90;;;;;;5035833;28;20487;-67
2023/06/20 05:25:50;;;;;;;12.30;11.80;;;20.50;99.90;;;;;;5031076;28;20460;-66
2023/06/20 05:28:17;;;;;;;12.40;11.90;;;20.50;99.90;;;;;;5035619;28;21245;-66
2023/06/20 05:30:43;;;;;;;11.70;11.20;;;20.60;99.90;;;;;;5032366;28;20468;-66
2023/06/20 05:33:11;;;;;;;11.50;11.10;;;20.60;99.90;;;;;;5042748;28;20495;-67
2023/06/20 05:35:41;;;;;;;12.40;11.90;;;20.60;99.90;;;;;;5031532;28;20840;-66
2023/06/20 05:38:08;;;;;;;11.40;11.00;;;20.80;99.90;;;;;;5032257;28;20464;-67
2023/06/20 05:40:35;;;;;;;11.40;11.00;;;20.90;99.90;;;;;;5036489;28;20468;-67
2023/06/20 05:43:03;;;;;;;11.60;11.20;;;21.00;99.90;;;;;;5039299;28;20471;-66
2023/06/20 05:45:30;;;;;;;11.67;11.20;;;21.00;99.90;;;;;;5034794;28;20504;-67
2023/06/20 05:47:58;;;;;;;10.93;10.53;;;21.10;99.90;;;;;;5031665;28;20461;-66
2023/06/20 05:50:25;;;;;;;19.53;17.73;;;21.20;99.90;;;;;;5043676;28;20471;-67
2023/06/20 05:52:53;;;;;;;10.17;9.80;;;21.20;99.90;;;;;;5041140;28;20569;-67
2023/06/20 05:55:20;;;;;;;9.27;8.97;;;21.30;99.90;;;;;;5031634;28;20464;-66
2023/06/20 05:57:47;;;;;;;9.50;9.20;;;21.40;99.90;;;;;;5041142;28;20464;-67
2023/06/20 06:00:16;;;;;;;10.17;9.77;;;21.40;99.90;;;;;;5031540;28;21053;-66
2023/06/20 06:02:45;;;;;;;10.60;10.20;;;21.60;99.90;;;;;;5043320;28;20455;-67
2023/06/20 06:05:11;;;;;;;11.00;10.60;;;21.60;99.90;;;;;;5031730;28;20468;-67
2023/06/20 06:07:39;;;;;;;10.37;9.97;;;21.80;99.90;;;;;;5035303;28;20479;-66
2023/06/20 06:10:08;;;;;;;12.30;11.70;;;22.00;99.90;;;;;;5042141;28;20461;-67
2023/06/20 06:12:36;;;;;;;10.73;10.33;;;22.00;99.90;;;;;;5026699;28;20869;-68
2023/06/20 06:15:04;;;;;;;11.13;10.73;;;22.10;99.90;;;;;;5036162;28;21059;-68
2023/06/20 06:17:31;;;;;;;11.20;10.80;;;22.30;99.90;;;;;;5034983;28;20549;-67
2023/06/20 06:19:58;;;;;;;13.10;12.50;;;22.50;99.90;;;;;;5034407;28;20564;-69
2023/06/20 06:22:25;;;;;;;12.30;11.80;;;22.50;99.90;;;;;;5039972;28;20456;-67
2023/06/20 06:24:52;;;;;;;12.47;11.97;;;22.60;99.90;;;;;;5032412;28;20894;-68
2023/06/20 06:27:20;;;;;;;12.50;12.00;;;22.70;99.90;;;;;;5038473;28;20448;-68
2023/06/20 06:29:47;;;;;;;12.70;12.20;;;22.90;99.90;;;;;;5040036;28;20456;-68
2023/06/20 06:32:19;;;;;;;12.70;12.20;;;23.10;99.90;;;;;;5025293;28;20492;-68
2023/06/20 06:34:47;;;;;;;13.40;12.80;;;23.30;99.90;;;;;;5029186;28;20490;-67
2023/06/20 06:37:14;;;;;;;13.60;13.00;;;23.40;99.90;;;;;;5032487;28;20468;-68
2023/06/20 06:39:41;;;;;;;13.80;13.20;;;23.50;99.90;;;;;;5027932;28;20915;-68
2023/06/20 06:42:08;;;;;;;13.63;13.03;;;23.70;99.90;;;;;;5032456;28;20480;-69
2023/06/20 06:44:36;;;;;;;13.60;13.00;;;23.80;99.90;;;;;;5036292;28;20538;-69
2023/06/20 06:47:04;;;;;;;14.27;13.67;;;24.00;99.90;;;;;;5037772;28;20463;-68
2023/06/20 06:49:31;;;;;;;14.37;13.77;;;24.10;99.90;;;;;;5036005;28;20935;-68
2023/06/20 06:52:26;;;;;;;14.40;13.80;;;24.30;99.90;;;;;;5037296;28;20562;-68
2023/06/20 06:54:57;;;;;;;15.30;14.60;;;24.30;99.90;;;;;;5024072;28;20463;-69
2023/06/20 06:57:23;;;;;;;16.03;15.33;;;24.60;99.90;;;;;;5046307;28;20818;-68
2023/06/20 06:59:52;;;;;;;17.00;15.87;;;24.70;99.90;;;;;;5043922;28;20464;-68
2023/06/20 07:02:20;;;;;;;15.93;15.13;;;25.00;99.90;;;;;;5039835;28;20932;-68
2023/06/20 07:04:47;;;;;;;15.43;14.73;;;25.00;99.90;;;;;;5044132;28;20449;-69
2023/06/20 07:07:13;;;;;;;15.63;14.83;;;25.00;99.90;;;;;;5046131;28;20456;-69
2023/06/20 07:09:40;;;;;;;15.53;14.83;;;24.90;99.90;;;;;;5031845;28;20943;-68
2023/06/20 07:12:08;;;;;;;16.00;15.30;;;24.70;99.90;;;;;;5040962;28;20459;-68
2023/06/20 07:14:35;;;;;;;15.97;15.27;;;24.80;99.90;;;;;;5037200;28;21065;-69
2023/06/20 07:17:03;;;;;;;16.83;15.73;;;24.80;99.90;;;;;;5036584;28;20901;-67
2023/06/20 07:19:30;;;;;;;17.83;16.93;;;24.90;99.90;;;;;;5038651;28;20538;-69
2023/06/20 07:21:56;;;;;;;16.37;15.57;;;25.00;99.90;;;;;;5036026;28;20463;-68
2023/06/20 07:24:23;;;;;;;15.70;15.00;;;25.20;99.90;;;;;;5037587;28;20876;-68
2023/06/20 07:26:50;;;;;;;16.20;15.40;;;25.30;99.90;;;;;;5041892;28;20719;-68
2023/06/20 07:29:16;;;;;;;17.10;16.30;;;25.40;99.90;;;;;;5039306;28;20464;-68
2023/06/20 07:31:43;;;;;;;16.27;15.53;;;25.60;99.90;;;;;;5032440;28;20960;-69
2023/06/20 07:34:12;;;;;;;16.53;15.73;;;25.80;99.90;;;;;;5039138;28;20498;-67
2023/06/20 07:36:39;;;;;;;17.83;16.37;;;26.00;99.90;;;;;;5035611;28;20488;-67
2023/06/20 07:39:06;;;;;;;17.20;16.40;;;26.20;99.90;;;;;;5041345;28;20925;-68
2023/06/20 07:41:33;;;;;;;16.43;15.63;;;26.60;99.90;;;;;;5043874;28;20480;-67
2023/06/20 07:44:00;;;;;;;18.57;17.57;;;26.90;99.90;;;;;;5040671;28;20467;-69
2023/06/20 07:46:27;;;;;;;17.13;16.33;;;27.00;99.90;;;;;;5040153;28;20506;-67
2023/06/20 07:48:54;;;;;;;17.50;16.70;;;27.20;99.90;;;;;;5043016;28;20853;-67
2023/06/20 07:51:23;;;;;;;18.57;17.67;;;27.30;99.90;;;;;;5032954;28;20966;-68
2023/06/20 07:53:50;;;;;;;19.33;18.00;;;27.60;99.90;;;;;;5042464;28;20842;-67
2023/06/20 07:56:17;;;;;;;17.27;16.47;;;27.80;99.90;;;;;;5031087;28;20502;-68
2023/06/20 07:58:44;;;;;;;18.37;17.07;;;27.70;99.90;;;;;;5039558;28;20456;-69
2023/06/20 08:01:12;;;;;;;18.17;17.27;;;27.60;99.90;;;;;;5034946;28;20461;-68
2023/06/20 08:03:40;;;;;;;17.33;16.53;;;28.00;99.90;;;;;;5036380;28;21096;-66
2023/06/20 08:06:07;;;;;;;17.37;16.57;;;28.30;99.90;;;;;;5041271;28;20460;-68
2023/06/20 08:08:35;;;;;;;17.73;16.93;;;28.60;99.90;;;;;;5032811;28;20471;-69
2023/06/20 08:11:02;;;;;;;19.00;17.83;;;29.10;99.90;;;;;;5036078;28;20464;-66
2023/06/20 08:13:29;;;;;;;19.03;17.93;;;29.40;99.90;;;;;;5037216;28;21254;-70
2023/06/20 08:15:56;;;;;;;17.50;16.70;;;28.70;99.90;;;;;;5035716;28;20483;-70
2023/06/20 08:18:23;;;;;;;17.93;17.13;;;28.60;99.90;;;;;;5031699;28;20459;-68
2023/06/20 08:20:51;;;;;;;17.30;16.50;;;28.30;99.90;;;;;;5034627;28;20523;-67
2023/06/20 08:23:23;;;;;;;17.37;16.57;;;28.30;99.90;;;;;;5037134;28;20957;-67
2023/06/20 08:25:53;;;;;;;18.60;17.70;;;28.30;99.90;;;;;;5036842;28;20559;-67
2023/06/20 08:28:20;;;;;;;18.23;17.33;;;28.60;99.90;;;;;;5034621;28;20562;-68
2023/06/20 08:30:48;;;;;;;20.83;19.30;;;29.70;99.90;;;;;;5034821;28;20468;-68
2023/06/20 08:33:15;;;;;;;20.67;19.10;;;30.00;99.90;;;;;;5032367;28;20510;-68
2023/06/20 08:35:42;;;;;;;19.67;18.03;;;30.10;99.90;;;;;;5036908;28;20552;-69
2023/06/20 08:38:10;;;;;;;17.93;17.13;;;30.60;99.90;;;;;;5034931;28;20455;-69
2023/06/20 08:40:37;;;;;;;18.53;17.63;;;31.00;99.90;;;;;;5032949;28;20563;-67
2023/06/20 08:43:06;;;;;;;20.73;19.63;;;30.20;99.90;;;;;;5035422;28;21022;-67
2023/06/20 08:45:33;;;;;;;19.63;18.63;;;30.80;99.90;;;;;;5039418;28;20487;-68
2023/06/20 08:48:00;;;;;;;18.50;17.60;;;30.50;99.90;;;;;;5034097;28;20449;-68
2023/06/20 08:50:27;;;;;;;20.27;19.10;;;30.50;99.90;;;;;;5035587;28;20796;-68
2023/06/20 08:52:56;;;;;;;18.30;17.40;;;30.90;99.90;;;;;;5039991;28;20837;-68
2023/06/20 08:55:24;;;;;;;18.33;17.43;;;31.30;99.90;;;;;;5029894;28;20879;-68
2023/06/20 08:57:52;;;;;;;18.20;17.40;;;31.20;99.90;;;;;;5031174;28;20464;-69
2023/06/20 09:00:21;;;;;;;17.80;17.00;;;31.30;99.90;;;;;;5030409;28;20994;-67
2023/06/20 09:02:49;;;;;;;17.90;17.10;;;31.30;99.90;;;;;;5032695;28;20468;-67
2023/06/20 09:05:16;;;;;;;18.00;17.20;;;31.60;99.90;;;;;;5027337;28;20499;-68
2023/06/20 09:07:43;;;;;;;18.20;17.40;;;31.00;99.90;;;;;;5034650;28;20451;-68
2023/06/20 09:10:13;;;;;;;18.23;17.33;;;31.20;99.90;;;;;;5031046;28;21058;-67
2023/06/20 09:12:50;;;;;;;20.10;18.90;;;31.30;99.90;;;;;;5032127;28;20463;-67
2023/06/20 09:15:18;;;;;;;18.00;17.20;;;31.80;99.90;;;;;;5033448;28;21025;-67
2023/06/20 09:17:50;;;;;;;18.70;17.80;;;32.40;99.90;;;;;;5023798;28;21047;-67
2023/06/20 09:20:17;;;;;;;18.40;17.57;;;32.70;99.90;;;;;;5029557;28;20460;-67
2023/06/20 09:22:44;;;;;;;18.10;17.30;;;32.20;99.90;;;;;;5035267;28;20509;-68
2023/06/20 09:25:12;;;;;;;18.10;17.20;;;32.10;99.90;;;;;;5033503;28;20472;-68
2023/06/20 09:27:41;;;;;;;18.00;17.10;;;32.50;99.90;;;;;;5027365;28;20463;-66
2023/06/20 09:30:09;;;;;;;18.77;17.87;;;32.30;99.90;;;;;;5025454;28;20510;-68
2023/06/20 09:32:37;;;;;;;17.80;17.00;;;31.90;99.90;;;;;;5029299;28;20460;-67
2023/06/20 09:35:06;;;;;;;17.90;17.10;;;32.40;99.90;;;;;;5034561;28;20497;-67
2023/06/20 09:37:40;;;;;;;18.33;17.53;;;32.80;99.90;;;;;;5029593;28;20537;-67
2023/06/20 09:40:09;;;;;;;18.60;17.70;;;33.00;99.90;;;;;;5039203;28;20459;-67
2023/06/20 09:42:36;;;;;;;17.90;17.10;;;33.10;99.90;;;;;;5029667;28;20485;-68
2023/06/20 09:45:04;;;;;;;18.07;17.27;;;33.20;99.90;;;;;;5035802;28;20460;-67
2023/06/20 09:47:31;;;;;;;18.43;17.63;;;33.70;99.90;;;;;;5030405;28;20589;-67
2023/06/20 09:49:58;;;;;;;18.20;17.40;;;34.60;99.90;;;;;;5037118;28;20484;-68
2023/06/20 09:52:33;;;;;;;18.80;17.97;;;35.10;99.90;;;;;;5033662;28;20849;-68
2023/06/20 09:55:04;;;;;;;18.97;18.07;;;34.50;99.90;;;;;;5033387;28;20502;-67
2023/06/20 09:57:37;;;;;;;18.63;17.73;;;34.40;99.90;;;;;;5030212;28;20454;-68
2023/06/20 10:00:10;;;;;;;19.20;18.20;;;34.00;99.90;;;;;;5030756;28;20754;-68
2023/06/20 10:02:39;;;;;;;17.70;16.90;;;34.00;99.90;;;;;;5034658;28;20471;-68
2023/06/20 10:05:07;;;;;;;18.33;17.53;;;33.40;99.90;;;;;;5031180;28;20471;-68
2023/06/20 10:07:37;;;;;;;18.83;17.40;;;34.00;99.90;;;;;;5031307;28;20464;-69
2023/06/20 10:10:05;;;;;;;17.50;16.70;;;34.60;99.90;;;;;;5031227;28;20500;-69
2023/06/20 10:12:32;;;;;;;18.00;17.20;;;34.70;99.90;;;;;;5032909;28;20978;-69
2023/06/20 10:15:00;;;;;;;18.97;18.07;;;34.50;99.00;;;;;;5032272;28;20807;-69
2023/06/20 10:17:31;;;;;;;18.17;17.37;;;34.30;98.80;;;;;;5032589;28;21098;-69
2023/06/20 10:19:59;;;;;;;19.20;18.20;;;34.80;97.90;;;;;;5034436;28;20580;-70
2023/06/20 10:22:38;;;;;;;17.30;16.60;;;35.30;97.10;;;;;;5031246;28;20848;-70
2023/06/20 10:25:12;;;;;;;17.50;16.70;;;34.80;96.70;;;;;;5030948;28;20459;-70
2023/06/20 10:27:41;;;;;;;17.60;16.80;;;34.80;96.90;;;;;;5036721;28;20558;-69
2023/06/20 10:30:09;;;;;;;19.67;18.67;;;34.30;97.80;;;;;;5026342;28;20567;-69
2023/06/20 10:32:35;;;;;;;18.13;17.23;;;35.00;96.70;;;;;;5034319;28;20770;-69
2023/06/20 10:35:09;;;;;;;16.70;16.00;;;35.50;95.20;;;;;;5037373;28;20490;-69
2023/06/20 10:37:39;;;;;;;17.57;16.70;;;35.30;95.00;;;;;;5027665;28;20539;-70
2023/06/20 10:40:10;;;;;;;16.87;16.17;;;35.80;94.90;;;;;;5035484;28;20946;-70
2023/06/20 10:42:38;;;;;;;17.77;16.97;;;36.20;93.40;;;;;;5032212;28;20494;-70
2023/06/20 10:45:24;;;;;;;17.60;16.70;;;36.70;92.80;;;;;;5040789;28;20601;-70
2023/06/20 10:47:51;;;;;;;17.30;16.50;;;36.20;92.80;;;;;;5028155;28;20765;-68
2023/06/20 10:50:18;;;;;;;17.73;16.93;;;36.30;92.60;;;;;;5031189;28;20495;-69
2023/06/20 10:52:46;;;;;;;16.40;15.70;;;36.60;92.30;;;;;;5033170;28;20802;-68
2023/06/20 10:55:21;;;;;;;16.83;16.03;;;36.40;92.20;;;;;;5035436;28;20518;-69
2023/06/20 10:57:50;;;;;;;16.90;16.10;;;36.40;92.20;;;;;;5029177;28;20452;-70
2023/06/20 11:00:18;;;;;;;17.50;16.70;;;37.20;91.20;;;;;;5028424;28;20473;-69
2023/06/20 11:02:47;;;;;;;16.77;16.07;;;37.20;90.20;;;;;;5027602;28;21136;-69
2023/06/20 11:05:14;;;;;;;16.63;15.93;;;36.80;89.70;;;;;;5033519;28;20464;-70
2023/06/20 11:07:53;;;;;;;17.67;16.87;;;37.00;90.30;;;;;;5030542;28;20517;-69
2023/06/20 11:10:21;;;;;;;16.60;15.90;;;37.00;90.00;;;;;;5032839;28;20476;-69
2023/06/20 11:12:49;;;;;;;17.67;16.87;;;36.90;90.10;;;;;;5031969;28;21014;-67
2023/06/20 11:15:28;;;;;;;16.20;15.50;;;37.30;89.40;;;;;;5033579;28;20499;-68
2023/06/20 11:17:55;;;;;;;16.00;15.37;;;37.30;88.30;;;;;;5032877;28;20471;-68
2023/06/20 11:20:24;;;;;;;17.20;16.40;;;37.10;86.50;;;;;;5030306;28;20465;-67
2023/06/20 11:22:54;;;;;;;16.63;15.93;;;37.00;86.00;;;;;;5036925;28;20550;-68
2023/06/20 11:25:25;;;;;;;16.40;15.70;;;36.90;86.50;;;;;;5028161;28;21004;-68
2023/06/20 11:27:53;;;;;;;16.57;15.87;;;37.90;83.10;;;;;;5033961;28;20483;-69
2023/06/20 11:30:30;;;;;;;16.13;15.43;;;38.40;80.20;;;;;;5031072;28;20970;-68
2023/06/20 11:33:05;;;;;;;15.83;15.23;;;38.50;80.20;;;;;;5038330;28;20455;-67
2023/06/20 11:35:54;;;;;;;16.17;15.47;;;37.70;80.60;;;;;;5033697;28;20613;-68
2023/06/20 11:38:25;;;;;;;15.90;15.20;;;37.00;83.10;;;;;;5031958;28;20472;-68
2023/06/20 11:41:03;;;;;;;16.60;15.80;;;37.90;82.20;;;;;;5033579;28;20488;-69
2023/06/20 11:43:36;;;;;;;15.60;15.00;;;38.90;76.50;;;;;;5035811;28;21097;-68
2023/06/20 11:46:04;;;;;;;18.80;17.57;;;39.30;73.30;;;;;;5035704;28;20560;-68
2023/06/20 11:48:31;;;;;;;16.27;15.57;;;39.20;71.90;;;;;;5039118;28;20467;-68
2023/06/20 11:50:59;;;;;;;16.60;15.90;;;39.20;72.90;;;;;;5035807;28;20465;-67
2023/06/20 11:53:31;;;;;;;17.00;16.20;;;39.90;71.40;;;;;;5039698;28;20458;-67
2023/06/20 11:56:00;;;;;;;15.70;15.10;;;40.30;69.70;;;;;;5036889;28;20492;-68
2023/06/20 11:58:27;;;;;;;16.10;15.40;;;39.60;69.20;;;;;;5039793;28;20460;-68
2023/06/20 12:01:04;;;;;;;15.20;14.60;;;38.90;67.60;;;;;;5038162;28;20849;-67
2023/06/20 12:03:31;;;;;;;15.30;14.70;;;38.60;69.30;;;;;;5041572;28;20498;-68
2023/06/20 12:05:58;;;;;;;15.03;14.43;;;38.80;69.30;;;;;;5041919;28;20888;-67
2023/06/20 12:08:26;;;;;;;15.77;15.17;;;38.90;67.30;;;;;;5031922;28;20470;-67
2023/06/20 12:11:01;;;;;;;16.20;15.43;;;39.90;67.70;;;;;;5033840;28;20464;-69
2023/06/20 12:13:29;;;;;;;16.87;16.17;;;40.60;63.50;;;;;;5029809;28;20530;-67
2023/06/20 12:15:57;;;;;;;16.00;15.30;;;40.80;62.90;;;;;;5036835;28;20484;-68
2023/06/20 12:18:24;;;;;;;15.70;15.10;;;40.80;61.90;;;;;;5034427;28;20459;-68
2023/06/20 12:20:51;;;;;;;16.27;15.57;;;41.60;60.50;;;;;;5033047;28;20476;-68
2023/06/20 12:23:19;;;;;;;15.10;14.50;;;42.60;59.20;;;;;;5038134;28;20870;-68
2023/06/20 12:25:45;;;;;;;15.43;14.73;;;41.60;59.30;;;;;;5037838;28;20883;-67
2023/06/20 12:28:14;;;;;;;15.30;14.70;;;40.30;59.20;;;;;;5035972;28;20686;-66
2023/06/20 12:30:41;;;;;;;14.83;14.23;;;40.90;58.40;;;;;;5036445;28;20456;-66
2023/06/20 12:33:10;;;;;;;16.20;15.50;;;41.30;58.10;;;;;;5042023;28;20777;-66
2023/06/20 12:35:39;;;;;;;15.30;14.70;;;41.50;57.40;;;;;;5036343;28;20491;-67